METAR Data
IDs: Format: Raw Decoded Include TAF

Data at: 1839 UTC 16 Oct 2021

KT82 161810Z AUTO 35007G16KT 10SM CLR 19/01 A3039 RMK AO2 T01930014
KT82 161750Z AUTO 05011G17KT 10SM CLR 19/02 A3040 RMK AO2 T01930022 10193 20098
KT82 161730Z AUTO 04010G15KT 10SM CLR 19/01 A3040 RMK AO2 T01890012
KT82 161710Z AUTO 05012G18KT 10SM CLR 19/01 A3041 RMK AO2 T01890006
KT82 161650Z AUTO 05011KT 10SM CLR 19/02 A3041 RMK AO2 T01860015
KT82 161630Z AUTO 06010G14KT 10SM CLR 18/02 A3041 RMK AO2 T01790023
KT82 161610Z AUTO 03011G18KT 10SM CLR 18/02 A3041 RMK AO2 T01750021
KT82 161550Z AUTO 04011G17KT 10SM CLR 17/03 A3042 RMK AO2 T01720033
KT82 161530Z AUTO 05012G16KT 10SM CLR 17/02 A3042 RMK AO2 T01670024
KT82 161510Z AUTO 04010G17KT 10SM CLR 16/03 A3041 RMK AO2 T01640030
KT82 161450Z AUTO 05009KT 020V080 10SM CLR 16/04 A3041 RMK AO2 T01570036
KT82 161430Z AUTO 03007KT 10SM CLR 15/04 A3040 RMK AO2 T01490041
KT82 161410Z AUTO 03005KT 10SM CLR 13/05 A3040 RMK AO2 T01320047
KT82 161350Z AUTO 02004KT 10SM CLR 12/05 A3038 RMK AO2 T01210052
KT82 161330Z AUTO 02004KT 10SM CLR 12/05 A3038 RMK AO2 T01170053
KT82 161310Z AUTO 01006KT 10SM CLR 11/05 A3037 RMK AO2 T01050052
KT82 161250Z AUTO 01006KT 10SM CLR 10/05 A3037 RMK AO2 T01000050
KT82 161230Z AUTO 01006KT 10SM CLR 10/05 A3036 RMK AO2 T01000050
KT82 161210Z AUTO 01005KT 10SM CLR 10/05 A3036 RMK AO2 T01000050
KT82 161150Z AUTO 02005KT 10SM CLR 11/05 A3035 RMK AO2 T01050048 10150 20105
KT82 161130Z AUTO 01007KT 10SM CLR 11/05 A3033 RMK AO2 T01120045
KT82 161110Z AUTO 02007KT 10SM CLR 12/05 A3033 RMK AO2 T01150045
KT82 161050Z AUTO 02006KT 10SM CLR 12/05 A3032 RMK AO2 T01160047
KT82 161030Z AUTO 02006KT 10SM CLR 12/05 A3031 RMK AO2 T01180048
KT82 161010Z AUTO 01007KT 10SM CLR 12/05 A3031 RMK AO2 T01220050
KT82 160950Z AUTO 02008KT 10SM CLR 13/05 A3031 RMK AO2 T01270049
KT82 160930Z AUTO 03007KT 10SM CLR 13/05 A3031 RMK AO2 T01290049
KT82 160910Z AUTO 02007KT 10SM CLR 13/05 A3030 RMK AO2 T01300051
KT82 160850Z AUTO 02006KT 10SM CLR 13/06 A3030 RMK AO2 T01300055
KT82 160830Z AUTO 02008KT 10SM CLR 13/06 A3030 RMK AO2 T01320057
KT82 160810Z AUTO 02007KT 10SM CLR 13/06 A3031 RMK AO2 T01320060
KT82 160750Z AUTO 02006KT 10SM CLR 13/06 A3031 RMK AO2 T01320062
KT82 160730Z AUTO 02007KT 10SM CLR 13/07 A3030 RMK AO2 T01330065
KT82 160710Z AUTO 02006KT 10SM CLR 14/07 A3031 RMK AO2 T01350065
KT82 160650Z AUTO 02006KT 10SM CLR 14/06 A3030 RMK AO2 T01400063
KT82 160630Z AUTO 02009KT 10SM CLR 14/07 A3029 RMK AO2 T01430066
KT82 160610Z AUTO 02011G14KT 10SM CLR 15/07 A3029 RMK AO2 T01480066
KT82 160550Z AUTO 02009G14KT 10SM CLR 15/07 A3029 RMK AO2 T01510070 10209 20151 402900151
KT82 160530Z AUTO 03009KT 10SM CLR 15/07 A3029 RMK AO2 T01540073
KT82 160510Z AUTO 03010G14KT 10SM CLR 16/08 A3028 RMK AO2 T01560076
KT82 160450Z AUTO 03008KT 10SM CLR 16/08 A3028 RMK AO2 T01560080
KT82 160430Z AUTO 02009KT 10SM CLR 16/08 A3027 RMK AO2 T01610081
KT82 160410Z AUTO 03006KT 10SM CLR 16/08 A3027 RMK AO2 T01640081
KT82 160350Z AUTO 02009G15KT 10SM CLR 17/08 A3025 RMK AO2 T01660084
KT82 160330Z AUTO 02008G17KT 10SM CLR 17/09 A3024 RMK AO2 T01700086
KT82 160310Z AUTO 03007G16KT 10SM CLR 17/09 A3023 RMK AO2 T01740090
KT82 160250Z AUTO 02010G15KT 10SM CLR 18/09 A3021 RMK AO2 T01770091
KT82 160230Z AUTO 02010G16KT 10SM CLR 18/09 A3020 RMK AO2 T01810091
KT82 160210Z AUTO 02011G16KT 10SM CLR 18/09 A3018 RMK AO2 T01830092
KT82 160150Z AUTO 01009G14KT 10SM CLR 19/10 A3018 RMK AO2 T01850096
KT82 160130Z AUTO 01012KT 10SM CLR 19/10 A3016 RMK AO2 T01870099
KT82 160110Z AUTO 36011G15KT 10SM CLR 19/10 A3016 RMK AO2 T01930096
KT82 160050Z AUTO 01009KT 10SM CLR 19/10 A3015 RMK AO2 T01940100
KT82 160030Z AUTO 01009KT 10SM CLR 20/11 A3014 RMK AO2 T01970107
KT82 160010Z AUTO 01011KT 10SM CLR 21/11 A3013 RMK AO2 T02050109
KT82 152350Z AUTO 01011G17KT 10SM CLR 21/11 A3012 RMK AO2 T02120109 10289 20212
KT82 152330Z AUTO 01014KT 10SM CLR 22/11 A3011 RMK AO2 T02150113
KT82 152310Z AUTO 01014G18KT 10SM CLR 22/11 A3011 RMK AO2 T02200114
KT82 152250Z AUTO 01010G20KT 10SM CLR 23/12 A3011 RMK AO2 T02250122
KT82 152230Z AUTO 01015G19KT 10SM CLR 22/12 A3010 RMK AO2 T02230123
KT82 152210Z AUTO 02013G17KT 10SM CLR 23/13 A3010 RMK AO2 T02340126
KT82 152150Z AUTO 36014G20KT 10SM CLR 24/13 A3009 RMK AO2 T02360125
KT82 152130Z AUTO 01014G19KT 10SM CLR 24/13 A3007 RMK AO2 T02440132
KT82 152110Z AUTO 35017G23KT 10SM CLR 25/13 A3007 RMK AO2 T02470128
KT82 152050Z AUTO 36014KT 10SM CLR 25/14 A3007 RMK AO2 T02520135
KT82 152030Z AUTO 35014G22KT 10SM CLR 25/13 A3006 RMK AO2 T02500127
KT82 152010Z AUTO 36018G23KT 10SM CLR 25/13 A3006 RMK AO2 T02520130
KT82 151950Z AUTO 01018G24KT 10SM CLR 25/13 A3006 RMK AO2 T02510126
KT82 151930Z AUTO 35016G22KT 10SM CLR 24/11 A3006 RMK AO2 T02420112
KT82 151910Z AUTO 35016G20KT 10SM CLR 24/12 A3006 RMK AO2 LTG DSNT S T02400119
KT82 151850Z AUTO 35015G19KT 10SM CLR 25/15 A3006 RMK AO2 T02470150
KT82 151830Z AUTO 36015G18KT 10SM SCT040 SCT046 SCT060 26/18 A3005 RMK AO2 T02600179
KT82 151810Z AUTO 35015G22KT 10SM SCT040 SCT046 SCT060 28/19 A3005 RMK AO2 T02770192
KT82 151750Z AUTO 34008G14KT 10SM CLR 29/18 A3004 RMK AO2 T02870178 10288 20220
KT82 151730Z AUTO 34008KT 10SM SCT040 28/16 A3005 RMK AO2 T02830164
KT82 151710Z AUTO 32011KT 10SM SCT033 SCT042 SCT050 28/19 A3005 RMK AO2 T02820185
KT82 151650Z AUTO 31009KT 10SM SCT021 SCT029 BKN035 26/21 A3006 RMK AO2 T02640207
KT82 151630Z AUTO 26003KT 10SM BKN020 BKN029 26/21 A3006 RMK AO2 T02550214
KT82 151610Z AUTO 25006KT 10SM SCT017 SCT024 BKN032 25/22 A3006 RMK AO2 T02520216
KT82 151550Z AUTO 22004KT 10SM SCT013 SCT019 SCT024 25/22 A3005 RMK AO2 T02450217
KT82 151530Z AUTO 27003KT 10SM BKN015 OVC023 24/21 A3005 RMK AO2 T02370213
KT82 151510Z AUTO 24003KT 10SM BKN011 OVC017 24/21 A3004 RMK AO2 T02360213
KT82 151450Z AUTO 26004KT 10SM OVC013 23/21 A3004 RMK AO2 T02330211
KT82 151430Z AUTO 28006KT 10SM OVC013 23/21 A3003 RMK AO2 T02300210
KT82 151410Z AUTO 28003KT 10SM OVC013 23/21 A3002 RMK AO2 T02280210
KT82 151350Z AUTO 28006KT 10SM BKN013 BKN018 23/21 A3000 RMK AO2 T02260210
KT82 151330Z AUTO 31005KT 10SM BKN009 BKN018 22/21 A2999 RMK AO2 T02240208
KT82 151310Z AUTO 33003KT 10SM OVC009 22/21 A2998 RMK AO2 T02220208
KT82 151250Z AUTO 29006KT 10SM OVC009 22/21 A2997 RMK AO2 T02200208
KT82 151230Z AUTO 33004KT 10SM OVC009 22/21 A2997 RMK AO2 T02200210
KT82 151210Z AUTO 21005KT 10SM OVC009 22/21 A2997 RMK AO2 T02200210
KT82 151150Z AUTO 22006KT 7SM BKN007 OVC012 22/21 A2996 RMK AO2 T02200210 10221 20214
KT82 151130Z AUTO 22005KT 7SM OVC007 22/21 A2996 RMK AO2 T02200212
KT82 151110Z AUTO 24004KT 7SM OVC009 22/21 A2995 RMK AO2 T02200211
KT82 151050Z AUTO 21005KT 5SM BR BKN008 OVC011 22/21 A2994 RMK AO2 T02200212
KT82 151030Z AUTO 21005KT 10SM OVC008 22/21 A2994 RMK AO2 T02210212
KT82 151010Z AUTO 24004KT 10SM OVC008 22/21 A2994 RMK AO2 T02200214
KT82 150950Z AUTO 00000KT 7SM BKN008 OVC018 22/21 A2993 RMK AO2 T02180213
KT82 150930Z AUTO 00000KT 7SM BKN006 OVC016 22/21 A2992 RMK AO2 T02190213
KT82 150910Z AUTO 00000KT 7SM OVC006 22/21 A2992 RMK AO2 T02180213
KT82 150850Z AUTO 00000KT 7SM OVC004 22/21 A2992 RMK AO2 T02170213
KT82 150830Z AUTO 00000KT 7SM OVC004 22/21 A2993 RMK AO2 T02160212
KT82 150810Z AUTO 00000KT 5SM BR OVC004 22/21 A2993 RMK AO2 T02150211
KT82 150750Z AUTO 18004KT 5SM BR OVC004 22/21 A2993 RMK AO2 T02150211
KT82 150730Z AUTO 18003KT 5SM BR OVC004 22/21 A2993 RMK AO2 T02160212
KT82 150710Z AUTO 16005KT 7SM OVC004 22/21 A2992 RMK AO2 T02170212
KT82 150650Z AUTO 17003KT 7SM OVC004 22/21 A2992 RMK AO2 T02170211